Time;durP1;ratioP1;P1;durP2;ratioP2;P2;SDS_P1;SDS_P2;PMS_P1;PMS_P2;Temp;Humidity;BMP_temperature;BMP_pressure;BME280_temperature;BME280_humidity;BME280_pressure;Samples;Min_cycle;Max_cycle;Signal;HPM_P1;HPM_P2
2022/06/19 00:01:04;;;;;;;6.00;2.70;;;;;;;;;;4383041;32;20165;-67
2022/06/19 00:34:26;;;;;;;3.58;2.10;;;;;;;;;;4348868;32;20122;-63
2022/06/19 00:36:52;;;;;;;2.10;1.90;;;;;;;;;;4356257;32;20574;-63
2022/06/19 00:39:19;;;;;;;2.90;2.22;;;;;;;;;;4352386;32;20089;-64
2022/06/19 00:41:46;;;;;;;4.30;2.00;;;;;;;;;;4357691;32;20224;-66
2022/06/19 00:44:13;;;;;;;8.45;1.92;;;;;;;;;;4355225;32;20110;-65
2022/06/19 00:46:43;;;;;;;2.65;2.08;;;;;;;;;;4357022;32;20562;-65
2022/06/19 00:49:13;;;;;;;1.98;1.80;;;;;;;;;;4341689;32;20114;-64
2022/06/19 00:51:39;;;;;;;4.12;2.08;;;;;;;;;;4356994;32;20216;-64
2022/06/19 00:54:07;;;;;;;2.90;2.00;;;;;;;;;;4356110;32;20505;-64
2022/06/19 00:56:33;;;;;;;3.17;1.70;;;;;;;;;;4352722;32;20549;-64
2022/06/19 00:58:59;;;;;;;1.83;1.52;;;;;;;;;;4355854;32;20116;-63
2022/06/19 01:01:27;;;;;;;3.35;1.90;;;;;;;;;;4352934;32;20115;-64
2022/06/19 01:04:01;;;;;;;3.83;1.90;;;;;;;;;;4357059;32;20193;-64
2022/06/19 01:06:28;;;;;;;2.20;1.80;;;;;;;;;;4365314;32;20102;-63
2022/06/19 01:08:55;;;;;;;2.20;2.00;;;;;;;;;;4355714;32;20105;-63
2022/06/19 01:11:22;;;;;;;2.37;2.17;;;;;;;;;;4351996;32;20613;-64
2022/06/19 01:13:49;;;;;;;2.60;2.00;;;;;;;;;;4349559;32;20141;-64
2022/06/19 01:16:15;;;;;;;5.90;1.77;;;;;;;;;;4355585;32;20122;-63
2022/06/19 01:18:41;;;;;;;2.33;1.87;;;;;;;;;;4359829;32;20094;-64
2022/06/19 01:21:19;;;;;;;4.87;1.62;;;;;;;;;;4348516;32;20106;-64
2022/06/19 01:24:00;;;;;;;2.28;1.83;;;;;;;;;;4362055;32;20093;-64
2022/06/19 01:26:27;;;;;;;4.37;1.80;;;;;;;;;;4356129;32;20200;-64
2022/06/19 01:28:56;;;;;;;4.60;1.77;;;;;;;;;;4347052;33;20512;-64
2022/06/19 01:31:29;;;;;;;4.18;2.40;;;;;;;;;;4346702;33;20098;-64
2022/06/19 01:34:26;;;;;;;6.65;2.00;;;;;;;;;;4348247;32;20210;-64
2022/06/19 01:36:51;;;;;;;2.72;1.77;;;;;;;;;;4361805;32;20541;-63
2022/06/19 01:39:17;;;;;;;2.30;1.62;;;;;;;;;;4361451;32;20129;-63
2022/06/19 01:41:43;;;;;;;3.37;1.70;;;;;;;;;;4361651;32;20140;-64
2022/06/19 01:44:09;;;;;;;2.12;1.70;;;;;;;;;;4361590;32;20464;-63
2022/06/19 01:46:35;;;;;;;2.62;1.80;;;;;;;;;;4362898;32;20106;-63
2022/06/19 01:49:02;;;;;;;4.05;2.42;;;;;;;;;;4361567;32;20523;-63
2022/06/19 01:51:28;;;;;;;3.60;1.87;;;;;;;;;;4359595;32;20105;-64
2022/06/19 01:54:15;;;;;;;2.15;1.65;;;;;;;;;;4348148;33;20136;-64
2022/06/19 01:56:41;;;;;;;4.53;1.70;;;;;;;;;;4346499;33;20106;-63
2022/06/19 01:59:09;;;;;;;2.42;1.85;;;;;;;;;;4346480;33;20148;-64
2022/06/19 02:01:36;;;;;;;2.03;1.60;;;;;;;;;;4346505;33;20502;-63
2022/06/19 02:04:03;;;;;;;2.53;1.60;;;;;;;;;;4346319;33;20189;-64
2022/06/19 02:06:32;;;;;;;2.08;1.80;;;;;;;;;;4347913;32;20520;-64
2022/06/19 02:09:02;;;;;;;2.35;1.95;;;;;;;;;;4346420;33;20580;-64
2022/06/19 02:11:31;;;;;;;2.22;1.87;;;;;;;;;;4346456;33;20197;-64
2022/06/19 02:13:58;;;;;;;4.35;2.20;;;;;;;;;;4347566;32;20544;-64
2022/06/19 02:16:24;;;;;;;1.83;1.67;;;;;;;;;;4347744;32;20105;-64
2022/06/19 02:18:52;;;;;;;4.15;1.87;;;;;;;;;;4345966;33;20122;-64
2022/06/19 02:21:20;;;;;;;3.22;1.90;;;;;;;;;;4334068;33;20118;-64
2022/06/19 02:23:47;;;;;;;2.20;2.00;;;;;;;;;;4347907;33;20126;-64
2022/06/19 02:26:13;;;;;;;3.37;1.90;;;;;;;;;;4346237;33;20118;-64
2022/06/19 02:28:43;;;;;;;2.37;1.83;;;;;;;;;;4346248;33;20453;-63
2022/06/19 02:31:10;;;;;;;2.95;2.05;;;;;;;;;;4333983;33;20106;-67
2022/06/19 02:33:43;;;;;;;3.95;2.00;;;;;;;;;;4345958;33;20239;-67
2022/06/19 02:36:32;;;;;;;2.92;1.80;;;;;;;;;;4347556;33;20114;-67
2022/06/19 02:39:01;;;;;;;1.83;1.70;;;;;;;;;;4347415;32;20102;-67
2022/06/19 02:41:31;;;;;;;2.97;2.00;;;;;;;;;;4345944;33;20130;-67
2022/06/19 02:44:00;;;;;;;3.22;1.95;;;;;;;;;;4347325;32;20170;-67
2022/06/19 02:46:26;;;;;;;2.53;1.80;;;;;;;;;;4347688;32;20098;-68
2022/06/19 02:48:52;;;;;;;2.47;1.90;;;;;;;;;;4347433;33;20125;-66
2022/06/19 02:51:18;;;;;;;2.95;2.03;;;;;;;;;;4345807;33;20461;-66
2022/06/19 02:53:44;;;;;;;2.03;1.83;;;;;;;;;;4355453;32;20130;-67
2022/06/19 02:56:10;;;;;;;8.48;2.42;;;;;;;;;;4362199;32;20525;-67
2022/06/19 02:58:36;;;;;;;5.12;2.05;;;;;;;;;;4360476;32;20170;-67
2022/06/19 03:01:02;;;;;;;2.60;1.75;;;;;;;;;;4362361;32;20196;-66
2022/06/19 03:03:32;;;;;;;2.33;2.12;;;;;;;;;;4362119;32;20460;-67
2022/06/19 03:05:58;;;;;;;4.90;2.50;;;;;;;;;;4360642;32;20118;-67
2022/06/19 03:08:24;;;;;;;1.80;1.70;;;;;;;;;;4361914;32;20098;-67
2022/06/19 03:10:50;;;;;;;2.45;1.80;;;;;;;;;;4361951;32;20117;-67
2022/06/19 03:13:20;;;;;;;3.08;2.62;;;;;;;;;;4347905;32;20174;-67
2022/06/19 03:15:46;;;;;;;3.60;2.08;;;;;;;;;;4361889;32;20078;-66
2022/06/19 03:18:12;;;;;;;2.45;1.70;;;;;;;;;;4362200;32;20122;-67
2022/06/19 03:20:38;;;;;;;1.83;1.70;;;;;;;;;;4348711;32;20180;-67
2022/06/19 03:23:04;;;;;;;5.18;1.65;;;;;;;;;;4347086;32;20106;-67
2022/06/19 03:25:30;;;;;;;2.20;2.00;;;;;;;;;;4347201;33;20121;-67
2022/06/19 03:27:57;;;;;;;1.95;1.70;;;;;;;;;;4346893;32;20490;-67
2022/06/19 03:30:23;;;;;;;1.87;1.77;;;;;;;;;;4346935;32;20101;-66
2022/06/19 03:32:49;;;;;;;3.33;2.00;;;;;;;;;;4346888;33;20227;-67
2022/06/19 03:35:16;;;;;;;3.97;2.05;;;;;;;;;;4346911;32;20521;-66
2022/06/19 03:37:42;;;;;;;1.52;1.42;;;;;;;;;;4346811;33;20438;-66
2022/06/19 03:40:09;;;;;;;2.60;1.70;;;;;;;;;;4347025;32;20539;-66
2022/06/19 03:42:35;;;;;;;2.62;1.87;;;;;;;;;;4345590;33;20121;-67
2022/06/19 03:45:01;;;;;;;2.65;1.87;;;;;;;;;;4346667;32;20114;-66
2022/06/19 03:47:27;;;;;;;3.10;1.73;;;;;;;;;;4348507;32;20094;-66
2022/06/19 03:49:53;;;;;;;1.83;1.70;;;;;;;;;;4349076;33;20087;-66
2022/06/19 03:52:19;;;;;;;2.00;1.90;;;;;;;;;;4348978;32;20111;-66
2022/06/19 03:54:45;;;;;;;5.90;1.55;;;;;;;;;;4348997;32;20117;-66
2022/06/19 03:57:12;;;;;;;1.87;1.75;;;;;;;;;;4348918;32;20134;-67
2022/06/19 03:59:39;;;;;;;2.10;1.90;;;;;;;;;;4348868;32;20114;-66
2022/06/19 04:02:05;;;;;;;2.10;1.90;;;;;;;;;;4348878;32;20208;-66
2022/06/19 04:04:31;;;;;;;2.25;2.03;;;;;;;;;;4348961;32;20208;-66
2022/06/19 04:06:57;;;;;;;2.12;1.92;;;;;;;;;;4349023;33;20177;-67
2022/06/19 04:09:23;;;;;;;2.55;1.87;;;;;;;;;;4349194;32;20449;-67
2022/06/19 04:11:49;;;;;;;2.40;1.90;;;;;;;;;;4349126;32;20116;-67
2022/06/19 04:14:15;;;;;;;2.25;1.83;;;;;;;;;;4348804;32;20541;-66
2022/06/19 04:16:43;;;;;;;1.75;1.50;;;;;;;;;;4348787;32;20185;-66
2022/06/19 04:19:09;;;;;;;2.85;1.80;;;;;;;;;;4348490;33;20113;-66
2022/06/19 04:21:44;;;;;;;6.12;2.00;;;;;;;;;;4348776;33;20545;-66
2022/06/19 04:24:11;;;;;;;;;;;;;;;;;;4349052;32;20126;-67
2022/06/19 04:26:38;;;;;;;9.73;2.10;;;;;;;;;;4348684;33;20364;-66
2022/06/19 04:29:05;;;;;;;2.83;1.90;;;;;;;;;;4347041;33;20191;-66
2022/06/19 04:31:31;;;;;;;3.05;1.60;;;;;;;;;;4348514;32;20116;-66
2022/06/19 04:33:57;;;;;;;4.37;2.00;;;;;;;;;;4348655;32;20130;-66
2022/06/19 04:36:24;;;;;;;2.72;1.67;;;;;;;;;;4348684;32;20465;-66
2022/06/19 04:38:51;;;;;;;2.47;1.73;;;;;;;;;;4348282;33;20482;-66
2022/06/19 04:41:22;;;;;;;3.17;1.70;;;;;;;;;;4347123;33;20580;-66
2022/06/19 04:43:50;;;;;;;4.90;1.95;;;;;;;;;;4348644;33;20103;-66
2022/06/19 04:46:16;;;;;;;4.50;2.40;;;;;;;;;;4348610;32;20126;-67
2022/06/19 04:48:42;;;;;;;1.90;1.60;;;;;;;;;;4348353;33;20534;-67
2022/06/19 04:51:08;;;;;;;1.98;1.80;;;;;;;;;;4348482;33;20121;-67
2022/06/19 04:53:37;;;;;;;2.10;1.50;;;;;;;;;;4348819;32;20115;-67
2022/06/19 04:56:04;;;;;;;3.97;1.80;;;;;;;;;;4348628;33;20102;-67
2022/06/19 04:58:30;;;;;;;2.22;1.60;;;;;;;;;;4347277;33;20091;-67
2022/06/19 05:00:56;;;;;;;3.97;1.50;;;;;;;;;;4348384;33;20110;-67
2022/06/19 05:03:23;;;;;;;4.32;1.55;;;;;;;;;;4348387;32;20178;-66
2022/06/19 05:05:49;;;;;;;2.42;1.45;;;;;;;;;;4348566;33;20110;-67
2022/06/19 05:08:15;;;;;;;4.00;1.50;;;;;;;;;;4346987;33;20110;-67
2022/06/19 05:10:41;;;;;;;4.05;1.70;;;;;;;;;;4348637;33;20208;-67
2022/06/19 05:13:22;;;;;;;2.10;1.50;;;;;;;;;;4348311;32;20133;-66
2022/06/19 05:15:49;;;;;;;3.60;1.50;;;;;;;;;;4348233;33;20126;-66
2022/06/19 05:18:16;;;;;;;4.80;1.80;;;;;;;;;;4348158;32;20114;-67
2022/06/19 05:20:42;;;;;;;1.70;1.58;;;;;;;;;;4348026;33;20114;-67
2022/06/19 05:23:09;;;;;;;2.80;2.05;;;;;;;;;;4346747;33;20213;-67
2022/06/19 05:25:36;;;;;;;1.70;1.60;;;;;;;;;;4334518;33;20109;-67
2022/06/19 05:28:03;;;;;;;2.20;1.65;;;;;;;;;;4347902;33;20122;-67
2022/06/19 05:30:29;;;;;;;1.70;1.60;;;;;;;;;;4348114;32;20113;-67
2022/06/19 05:32:55;;;;;;;2.70;1.65;;;;;;;;;;4347885;33;20541;-67
2022/06/19 05:35:20;;;;;;;2.67;1.87;;;;;;;;;;4346598;33;20255;-67
2022/06/19 05:37:47;;;;;;;2.78;1.83;;;;;;;;;;4347895;32;20213;-67
2022/06/19 05:40:13;;;;;;;4.43;1.70;;;;;;;;;;4348281;32;20089;-67
2022/06/19 05:42:39;;;;;;;2.03;1.85;;;;;;;;;;4348017;33;20512;-67
2022/06/19 05:45:05;;;;;;;1.90;1.70;;;;;;;;;;4347963;32;20087;-67
2022/06/19 05:47:31;;;;;;;2.40;1.80;;;;;;;;;;4347943;32;20202;-67
2022/06/19 05:49:57;;;;;;;3.40;1.80;;;;;;;;;;4348266;32;20211;-67
2022/06/19 05:52:24;;;;;;;1.85;1.70;;;;;;;;;;4333963;33;20223;-67
2022/06/19 05:54:52;;;;;;;4.30;1.60;;;;;;;;;;4347963;32;20118;-67
2022/06/19 05:57:18;;;;;;;1.90;1.70;;;;;;;;;;4347905;32;20442;-67
2022/06/19 05:59:44;;;;;;;4.15;1.90;;;;;;;;;;4346603;33;20134;-67
2022/06/19 06:02:13;;;;;;;2.08;1.87;;;;;;;;;;4347987;33;20341;-67
2022/06/19 06:04:39;;;;;;;7.35;2.05;;;;;;;;;;4348051;33;20094;-67
2022/06/19 06:07:07;;;;;;;5.80;2.05;;;;;;;;;;4347757;33;20106;-67
2022/06/19 06:09:33;;;;;;;3.50;1.67;;;;;;;;;;4347378;33;20097;-67
2022/06/19 06:11:59;;;;;;;5.55;1.70;;;;;;;;;;4347691;32;20126;-68
2022/06/19 06:14:25;;;;;;;2.12;1.92;;;;;;;;;;4346326;33;20110;-67
2022/06/19 06:16:51;;;;;;;1.50;1.33;;;;;;;;;;4347638;32;20249;-67
2022/06/19 06:19:17;;;;;;;1.60;1.50;;;;;;;;;;4347516;32;20106;-67
2022/06/19 06:21:43;;;;;;;4.00;1.70;;;;;;;;;;4347935;32;20098;-67
2022/06/19 06:24:13;;;;;;;2.00;1.83;;;;;;;;;;4347590;32;20204;-67
2022/06/19 06:26:39;;;;;;;1.50;1.40;;;;;;;;;;4347910;32;20180;-67
2022/06/19 06:29:05;;;;;;;3.97;1.90;;;;;;;;;;4347518;33;20224;-68
2022/06/19 06:31:31;;;;;;;4.75;1.77;;;;;;;;;;4347633;33;20130;-68
2022/06/19 06:33:57;;;;;;;5.35;2.05;;;;;;;;;;4347570;32;20613;-67
2022/06/19 06:36:23;;;;;;;2.15;1.60;;;;;;;;;;4347534;32;20094;-67
2022/06/19 06:38:49;;;;;;;4.43;1.80;;;;;;;;;;4347434;32;20596;-67
2022/06/19 06:41:15;;;;;;;3.67;1.73;;;;;;;;;;4347749;32;20102;-68
2022/06/19 06:43:44;;;;;;;4.37;1.87;;;;;;;;;;4346272;33;20122;-67
2022/06/19 06:46:18;;;;;;;2.22;1.62;;;;;;;;;;4346061;33;20103;-67
2022/06/19 06:48:45;;;;;;;1.65;1.55;;;;;;;;;;4347462;33;20101;-68
2022/06/19 06:51:16;;;;;;;1.55;1.45;;;;;;;;;;4347650;32;20098;-67
2022/06/19 06:53:42;;;;;;;5.12;2.53;;;;;;;;;;4347413;33;20177;-68
2022/06/19 06:56:08;;;;;;;8.25;1.77;;;;;;;;;;4345989;33;20115;-67
2022/06/19 06:58:35;;;;;;;11.35;3.08;;;;;;;;;;4347524;33;20133;-67
2022/06/19 07:01:16;;;;;;;6.18;3.08;;;;;;;;;;4333533;33;20122;-68
2022/06/19 07:03:43;;;;;;;1.35;1.30;;;;;;;;;;4345753;33;20175;-68
2022/06/19 07:06:09;;;;;;;1.50;1.40;;;;;;;;;;4345736;33;20195;-68
2022/06/19 07:08:35;;;;;;;1.67;1.40;;;;;;;;;;4347377;33;20113;-68
2022/06/19 07:11:01;;;;;;;1.65;1.55;;;;;;;;;;4347200;32;20126;-68
2022/06/19 07:13:27;;;;;;;2.45;1.60;;;;;;;;;;4347224;32;20118;-68
2022/06/19 07:15:53;;;;;;;1.50;1.40;;;;;;;;;;4347127;32;20107;-67
2022/06/19 07:18:20;;;;;;;1.67;1.58;;;;;;;;;;4347108;33;20122;-68
2022/06/19 07:20:46;;;;;;;3.00;1.30;;;;;;;;;;4347343;32;20129;-68
2022/06/19 07:23:12;;;;;;;1.20;1.20;;;;;;;;;;4349540;33;20200;-68
2022/06/19 07:25:38;;;;;;;1.75;1.65;;;;;;;;;;4349409;33;20125;-68
2022/06/19 07:28:04;;;;;;;1.67;1.58;;;;;;;;;;4349143;33;20625;-68
2022/06/19 07:30:30;;;;;;;1.40;1.30;;;;;;;;;;4349524;32;20137;-68
2022/06/19 07:32:57;;;;;;;1.55;1.40;;;;;;;;;;4349060;33;20204;-67
2022/06/19 07:35:23;;;;;;;1.55;1.35;;;;;;;;;;4349222;33;20215;-67
2022/06/19 07:37:51;;;;;;;3.70;1.50;;;;;;;;;;4349395;32;20137;-68
2022/06/19 07:40:19;;;;;;;12.00;1.90;;;;;;;;;;4349204;33;20110;-67
2022/06/19 07:42:45;;;;;;;2.55;1.15;;;;;;;;;;4349301;33;20123;-67
2022/06/19 07:45:12;;;;;;;2.97;1.50;;;;;;;;;;4349214;33;20227;-67
2022/06/19 07:50:23;;;;;;;4.97;1.77;;;;;;;;;;4348002;33;20480;-68
2022/06/19 07:52:50;;;;;;;1.58;1.48;;;;;;;;;;4347589;33;20117;-67
2022/06/19 07:55:18;;;;;;;1.70;1.60;;;;;;;;;;4349375;33;20115;-67
2022/06/19 07:57:44;;;;;;;1.50;1.40;;;;;;;;;;4348868;32;20239;-67
2022/06/19 08:00:16;;;;;;;2.70;1.80;;;;;;;;;;4347488;33;20457;-67
2022/06/19 08:02:50;;;;;;;3.97;2.20;;;;;;;;;;4348903;32;20489;-67
2022/06/19 08:05:18;;;;;;;3.97;1.90;;;;;;;;;;4349114;33;20518;-67
2022/06/19 08:07:44;;;;;;;1.75;1.65;;;;;;;;;;4348710;33;20121;-68
2022/06/19 08:10:20;;;;;;;1.75;1.55;;;;;;;;;;4348996;32;20120;-67
2022/06/19 08:12:46;;;;;;;2.67;1.45;;;;;;;;;;4348323;32;20218;-67
2022/06/19 08:15:13;;;;;;;2.42;1.95;;;;;;;;;;4348798;33;20219;-66
2022/06/19 08:17:40;;;;;;;7.55;1.62;;;;;;;;;;4321918;33;20113;-67
2022/06/19 08:20:06;;;;;;;4.60;1.77;;;;;;;;;;4347496;32;20137;-67
2022/06/19 08:22:32;;;;;;;1.75;1.42;;;;;;;;;;4347585;32;20207;-67
2022/06/19 08:24:58;;;;;;;1.42;1.33;;;;;;;;;;4348723;32;20134;-66
2022/06/19 08:27:24;;;;;;;3.50;1.60;;;;;;;;;;4348569;32;20202;-65
2022/06/19 08:29:50;;;;;;;2.25;1.80;;;;;;;;;;4348892;32;20206;-66
2022/06/19 08:32:16;;;;;;;1.90;1.80;;;;;;;;;;4348505;32;20209;-67
2022/06/19 08:34:42;;;;;;;1.70;1.60;;;;;;;;;;4348501;32;20119;-67
2022/06/19 08:37:09;;;;;;;1.50;1.40;;;;;;;;;;4348168;32;20181;-68
2022/06/19 08:39:36;;;;;;;1.52;1.42;;;;;;;;;;4348809;33;20202;-68
2022/06/19 08:42:36;;;;;;;2.50;1.67;;;;;;;;;;4360223;32;20506;-73
2022/06/19 08:45:32;;;;;;;1.02;1.02;;;;;;;;;;4345994;33;20137;-68
2022/06/19 08:48:16;;;;;;;2.10;1.90;;;;;;;;;;4331078;33;20091;-69
2022/06/19 08:50:47;;;;;;;1.50;1.40;;;;;;;;;;4330578;33;20111;-69
2022/06/19 08:53:32;;;;;;;6.00;1.85;;;;;;;;;;4332698;33;20208;-70
2022/06/19 08:56:20;;;;;;;2.30;1.67;;;;;;;;;;4333486;33;20208;-67
2022/06/19 08:58:54;;;;;;;4.10;1.50;;;;;;;;;;4331888;33;20208;-70
2022/06/19 09:01:46;;;;;;;7.43;1.65;;;;;;;;;;4333613;33;20234;-68
2022/06/19 09:07:56;;;;;;;5.28;1.60;;;;;;;;;;4332462;33;20114;-68
2022/06/19 09:10:28;;;;;;;9.10;1.80;;;;;;;;;;4332730;33;20186;-69
2022/06/19 09:13:05;;;;;;;3.12;1.77;;;;;;;;;;4333768;33;20102;-68
2022/06/19 09:15:49;;;;;;;3.45;1.77;;;;;;;;;;4332409;33;20534;-69
2022/06/19 09:18:39;;;;;;;2.00;1.55;;;;;;;;;;4333648;33;20422;-67
2022/06/19 09:21:40;;;;;;;1.65;1.55;;;;;;;;;;4333679;33;20549;-66
2022/06/19 09:24:40;;;;;;;5.57;2.40;;;;;;;;;;4327906;33;20142;-65
2022/06/19 09:27:07;;;;;;;3.28;1.77;;;;;;;;;;4333431;33;20119;-65
2022/06/19 09:29:38;;;;;;;4.95;2.35;;;;;;;;;;4331816;33;20534;-66
2022/06/19 09:32:18;;;;;;;1.45;1.35;;;;;;;;;;4331928;33;20103;-66
2022/06/19 09:34:43;;;;;;;1.60;1.50;;;;;;;;;;4332001;33;20123;-66
2022/06/19 09:37:31;;;;;;;5.00;1.92;;;;;;;;;;4333497;33;20208;-67
2022/06/19 09:40:11;;;;;;;3.22;1.85;;;;;;;;;;4344199;33;20129;-68
2022/06/19 09:42:40;;;;;;;1.42;1.33;;;;;;;;;;4344219;33;20115;-70
2022/06/19 09:45:28;;;;;;;2.97;1.80;;;;;;;;;;4343563;33;20447;-69
2022/06/19 09:48:01;;;;;;;1.60;1.50;;;;;;;;;;4344244;33;20193;-68
2022/06/19 09:50:33;;;;;;;2.65;1.90;;;;;;;;;;4331829;33;20121;-68
2022/06/19 09:53:08;;;;;;;3.05;1.67;;;;;;;;;;4331640;33;20200;-67
2022/06/19 09:55:58;;;;;;;2.55;1.42;;;;;;;;;;4333375;33;20114;-66
2022/06/19 09:58:34;;;;;;;1.30;1.25;;;;;;;;;;4343960;33;20545;-66
2022/06/19 10:01:00;;;;;;;1.10;1.10;;;;;;;;;;4343941;33;20541;-68
2022/06/19 10:03:34;;;;;;;2.50;1.90;;;;;;;;;;4332925;33;20114;-66
2022/06/19 10:06:09;;;;;;;3.85;1.50;;;;;;;;;;4344216;33;20145;-66
2022/06/19 10:08:43;;;;;;;1.08;1.08;;;;;;;;;;4332928;33;20123;-65
2022/06/19 10:11:15;;;;;;;1.05;1.05;;;;;;;;;;4343934;33;20126;-66
2022/06/19 10:13:58;;;;;;;1.67;1.58;;;;;;;;;;4333056;33;20111;-66
2022/06/19 10:16:47;;;;;;;3.37;1.52;;;;;;;;;;4333411;33;20083;-66
2022/06/19 10:19:35;;;;;;;2.83;1.77;;;;;;;;;;4336824;33;20112;-66
2022/06/19 10:22:14;;;;;;;1.60;1.50;;;;;;;;;;4346260;33;20126;-66
2022/06/19 10:24:59;;;;;;;3.12;2.05;;;;;;;;;;4347749;32;20478;-66
2022/06/19 10:27:51;;;;;;;2.13;1.60;;;;;;;;;;4347623;32;20122;-66
2022/06/19 10:30:22;;;;;;;1.70;1.60;;;;;;;;;;4347931;32;20194;-66
2022/06/19 10:32:48;;;;;;;1.60;1.50;;;;;;;;;;4346088;33;20133;-67
2022/06/19 10:35:22;;;;;;;2.30;1.92;;;;;;;;;;4347779;33;20107;-66
2022/06/19 10:38:03;;;;;;;2.10;1.90;;;;;;;;;;4347684;32;20462;-66
2022/06/19 10:40:38;;;;;;;3.72;1.52;;;;;;;;;;4347675;32;20090;-66
2022/06/19 10:43:30;;;;;;;2.75;1.85;;;;;;;;;;4347567;32;20103;-65
2022/06/19 10:46:07;;;;;;;2.78;1.50;;;;;;;;;;4347448;32;20102;-66
2022/06/19 10:48:53;;;;;;;11.75;1.50;;;;;;;;;;4346082;33;20109;-66
2022/06/19 10:51:50;;;;;;;2.55;1.83;;;;;;;;;;4345965;33;20109;-67
2022/06/19 10:54:30;;;;;;;3.47;1.92;;;;;;;;;;4347300;33;20115;-67
2022/06/19 10:57:22;;;;;;;7.65;2.30;;;;;;;;;;4347839;33;20110;-67
2022/06/19 10:59:49;;;;;;;3.35;2.17;;;;;;;;;;4351424;32;20105;-67
2022/06/19 11:05:30;;;;;;;1.83;1.73;;;;;;;;;;4364497;32;20114;-65
2022/06/19 11:07:57;;;;;;;2.22;1.80;;;;;;;;;;4362743;32;20537;-67
2022/06/19 11:10:47;;;;;;;3.35;2.00;;;;;;;;;;4356845;32;20181;-68
2022/06/19 11:13:14;;;;;;;2.78;1.98;;;;;;;;;;4350884;32;20098;-71
2022/06/19 11:15:43;;;;;;;4.35;1.90;;;;;;;;;;4349558;33;20181;-67
2022/06/19 11:18:25;;;;;;;1.62;1.52;;;;;;;;;;4349231;33;20205;-68
2022/06/19 11:20:57;;;;;;;3.20;1.85;;;;;;;;;;4349287;33;20207;-68
2022/06/19 11:23:32;;;;;;;4.53;2.12;;;;;;;;;;4349497;32;20216;-67
2022/06/19 11:26:07;;;;;;;2.20;1.92;;;;;;;;;;4349171;32;20122;-68
2022/06/19 11:28:56;;;;;;;2.75;1.73;;;;;;;;;;4347591;33;20204;-68
2022/06/19 11:31:28;;;;;;;4.30;1.90;;;;;;;;;;4342504;33;20130;-67
2022/06/19 11:34:43;;;;;;;3.55;1.95;;;;;;;;;;4345824;33;20085;-68
2022/06/19 11:36:50;;;;;;;2.45;1.75;;;;;;;;;;4336241;33;20118;-66
2022/06/19 11:39:46;;;;;;;1.73;1.62;;;;;;;;;;4352671;32;20247;-67
2022/06/19 11:42:48;;;;;;;2.35;1.77;;;;;;;;;;4349407;32;20149;-67
2022/06/19 11:45:13;;;;;;;1.15;1.15;;;;;;;;;;4352321;32;20098;-67
2022/06/19 11:47:59;;;;;;;3.65;1.30;;;;;;;;;;4358151;32;20218;-65
2022/06/19 11:50:29;;;;;;;;;;;;;;;;;;4348603;32;20126;-67
2022/06/19 11:52:56;;;;;;;0.85;0.85;;;;;;;;;;4347756;32;20016;-66
2022/06/19 11:55:27;;;;;;;1.17;1.17;;;;;;;;;;4346559;33;20129;-67
2022/06/19 11:57:56;;;;;;;1.73;1.62;;;;;;;;;;4344481;33;20102;-66
2022/06/19 12:00:34;;;;;;;1.90;1.80;;;;;;;;;;4345782;33;20541;-67
2022/06/19 12:03:04;;;;;;;1.42;1.35;;;;;;;;;;4347249;32;20106;-69
2022/06/19 12:05:33;;;;;;;3.60;1.83;;;;;;;;;;4353906;32;20114;-67
2022/06/19 12:08:11;;;;;;;1.80;1.67;;;;;;;;;;4361894;32;20124;-68
2022/06/19 12:10:40;;;;;;;2.55;1.70;;;;;;;;;;4362679;32;20134;-66
2022/06/19 12:13:19;;;;;;;1.55;1.45;;;;;;;;;;4358134;32;20188;-66
2022/06/19 12:15:54;;;;;;;4.05;1.80;;;;;;;;;;4362175;32;20134;-69
2022/06/19 12:18:20;;;;;;;2.75;1.70;;;;;;;;;;4363577;32;20092;-69
2022/06/19 12:21:04;;;;;;;2.28;1.67;;;;;;;;;;4350079;32;20095;-69
2022/06/19 12:23:37;;;;;;;2.58;1.58;;;;;;;;;;4348259;32;20141;-67
2022/06/19 12:26:09;;;;;;;2.17;1.98;;;;;;;;;;4347774;32;20207;-66
2022/06/19 12:28:41;;;;;;;4.18;1.90;;;;;;;;;;4346012;33;20091;-68
2022/06/19 12:31:12;;;;;;;1.90;1.75;;;;;;;;;;4356372;32;20472;-68
2022/06/19 12:34:23;;;;;;;1.77;1.67;;;;;;;;;;4362460;32;20120;-68
2022/06/19 12:36:49;;;;;;;2.58;1.65;;;;;;;;;;4350841;32;20107;-67
2022/06/19 12:39:18;;;;;;;2.20;2.00;;;;;;;;;;4362610;32;20105;-67
2022/06/19 12:42:04;;;;;;;7.15;1.75;;;;;;;;;;4363356;32;20113;-69
2022/06/19 12:44:51;;;;;;;1.70;1.40;;;;;;;;;;4363510;32;20275;-70
2022/06/19 12:47:52;;;;;;;12.37;2.28;;;;;;;;;;4362226;32;20127;-67
2022/06/19 12:50:36;;;;;;;1.70;1.60;;;;;;;;;;4363569;32;20114;-66
2022/06/19 12:53:05;;;;;;;1.03;1.03;;;;;;;;;;4363287;32;20090;-67
2022/06/19 12:56:09;;;;;;;1.25;1.15;;;;;;;;;;4353660;32;20193;-66
2022/06/19 12:58:41;;;;;;;5.97;1.42;;;;;;;;;;4348423;33;20198;-66
2022/06/19 13:01:18;;;;;;;2.58;1.50;;;;;;;;;;4348387;32;20544;-66
2022/06/19 13:04:05;;;;;;;3.55;1.65;;;;;;;;;;4348110;32;20177;-68
2022/06/19 13:06:53;;;;;;;4.65;1.90;;;;;;;;;;4347821;33;20110;-66
2022/06/19 13:10:00;;;;;;;2.50;2.30;;;;;;;;;;4346791;32;20175;-66
2022/06/19 13:12:32;;;;;;;6.70;3.33;;;;;;;;;;4345886;33;20130;-67
2022/06/19 13:15:20;;;;;;;4.53;3.35;;;;;;;;;;4359320;32;20095;-67
2022/06/19 13:17:50;;;;;;;6.68;5.25;;;;;;;;;;4349159;32;20195;-67
2022/06/19 13:20:35;;;;;;;9.82;3.08;;;;;;;;;;4347412;32;20788;-69
2022/06/19 13:23:01;;;;;;;11.57;2.87;;;;;;;;;;4348746;32;20205;-68
2022/06/19 13:25:41;;;;;;;4.90;3.40;;;;;;;;;;4363161;32;20098;-67
2022/06/19 13:28:07;;;;;;;9.10;2.83;;;;;;;;;;4358860;32;20172;-68
2022/06/19 13:30:51;;;;;;;7.78;4.15;;;;;;;;;;4348100;33;20529;-67
2022/06/19 13:33:32;;;;;;;10.35;5.03;;;;;;;;;;4342664;32;20187;-67
2022/06/19 13:36:06;;;;;;;7.47;3.42;;;;;;;;;;4363286;32;20106;-66
2022/06/19 13:38:51;;;;;;;5.12;3.05;;;;;;;;;;4363138;32;20124;-65
2022/06/19 13:41:50;;;;;;;5.18;3.30;;;;;;;;;;4363014;32;20113;-66
2022/06/19 13:44:16;;;;;;;6.45;4.20;;;;;;;;;;4363065;32;20125;-68
2022/06/19 13:46:57;;;;;;;6.28;3.25;;;;;;;;;;4362954;32;20137;-72
2022/06/19 13:49:49;;;;;;;4.93;3.25;;;;;;;;;;4363095;32;20227;-73
2022/06/19 13:52:30;;;;;;;3.08;2.65;;;;;;;;;;4362565;32;20151;-73
2022/06/19 13:55:40;;;;;;;2.35;2.15;;;;;;;;;;4350684;32;20177;-72
2022/06/19 13:58:15;;;;;;;2.28;2.15;;;;;;;;;;4323137;33;20205;-73
2022/06/19 14:00:47;;;;;;;2.58;2.37;;;;;;;;;;4345787;33;20099;-77
2022/06/19 14:03:12;;;;;;;3.28;2.40;;;;;;;;;;4343154;33;20115;-77
2022/06/19 14:05:40;;;;;;;4.72;2.60;;;;;;;;;;4347167;32;20104;-77
2022/06/19 14:08:09;;;;;;;1.85;1.70;;;;;;;;;;4345021;33;20469;-79
2022/06/19 14:10:47;;;;;;;6.82;2.50;;;;;;;;;;4346787;32;20283;-78
2022/06/19 14:13:21;;;;;;;3.17;2.10;;;;;;;;;;4325470;33;20209;-76
2022/06/19 14:16:09;;;;;;;2.45;2.00;;;;;;;;;;4345238;33;20110;-77
2022/06/19 14:18:56;;;;;;;4.37;2.25;;;;;;;;;;4344970;33;20551;-76
2022/06/19 14:21:34;;;;;;;4.62;2.37;;;;;;;;;;4344491;33;20536;-75
2022/06/19 14:24:18;;;;;;;6.93;2.20;;;;;;;;;;4348049;32;20133;-68
2022/06/19 14:27:25;;;;;;;5.32;2.40;;;;;;;;;;4347880;32;20094;-69
2022/06/19 14:30:12;;;;;;;5.35;3.10;;;;;;;;;;4344267;32;20141;-69
2022/06/19 14:32:44;;;;;;;3.62;2.70;;;;;;;;;;4346189;33;20186;-68
2022/06/19 14:35:09;;;;;;;4.00;2.67;;;;;;;;;;4347497;32;20110;-68
2022/06/19 14:38:13;;;;;;;9.82;2.80;;;;;;;;;;4341807;32;20533;-70
2022/06/19 14:40:57;;;;;;;4.65;2.53;;;;;;;;;;4343333;33;20126;-70
2022/06/19 14:43:31;;;;;;;4.35;2.80;;;;;;;;;;4330758;33;20259;-71
2022/06/19 14:46:03;;;;;;;10.73;2.47;;;;;;;;;;4331445;33;20114;-68
2022/06/19 14:48:47;;;;;;;4.37;1.70;;;;;;;;;;4332726;33;20567;-69
2022/06/19 14:51:18;;;;;;;2.78;1.95;;;;;;;;;;4332745;33;20105;-70
2022/06/19 14:54:23;;;;;;;3.83;2.17;;;;;;;;;;4331239;33;20122;-69
2022/06/19 14:56:52;;;;;;;3.47;2.05;;;;;;;;;;4337688;33;20487;-69
2022/06/19 14:59:30;;;;;;;3.00;1.87;;;;;;;;;;4347357;32;20506;-69
2022/06/19 15:01:57;;;;;;;8.25;2.53;;;;;;;;;;4346404;32;20098;-68
2022/06/19 15:04:28;;;;;;;8.52;2.20;;;;;;;;;;4345535;33;20124;-68
2022/06/19 15:07:16;;;;;;;2.67;2.12;;;;;;;;;;4347219;32;20087;-68
2022/06/19 15:09:48;;;;;;;6.97;3.00;;;;;;;;;;4345928;33;20086;-69
2022/06/19 15:12:14;;;;;;;4.28;2.60;;;;;;;;;;4347117;32;20105;-69
2022/06/19 15:15:21;;;;;;;6.00;2.40;;;;;;;;;;4346972;32;20098;-69
2022/06/19 15:17:53;;;;;;;4.87;2.30;;;;;;;;;;4345455;33;20226;-69
2022/06/19 15:20:28;;;;;;;5.43;2.60;;;;;;;;;;4345711;33;20094;-69
2022/06/19 15:23:14;;;;;;;3.08;2.30;;;;;;;;;;4346924;32;20533;-68
2022/06/19 15:25:43;;;;;;;6.45;2.83;;;;;;;;;;4347119;33;20125;-68
2022/06/19 15:28:43;;;;;;;4.25;2.80;;;;;;;;;;4345540;33;20110;-68
2022/06/19 15:31:18;;;;;;;15.93;3.28;;;;;;;;;;4347248;32;20204;-68
2022/06/19 15:33:53;;;;;;;6.95;2.83;;;;;;;;;;4346673;32;20523;-70
2022/06/19 15:36:20;;;;;;;5.57;2.10;;;;;;;;;;4346767;32;20114;-68
2022/06/19 15:39:08;;;;;;;3.55;2.60;;;;;;;;;;4345528;33;20130;-70
2022/06/19 15:41:36;;;;;;;7.10;2.53;;;;;;;;;;4346857;32;20537;-69
2022/06/19 15:44:18;;;;;;;9.15;2.50;;;;;;;;;;4349569;32;20146;-68
2022/06/19 15:47:07;;;;;;;6.82;2.67;;;;;;;;;;4349056;32;20108;-68
2022/06/19 15:49:49;;;;;;;3.80;2.45;;;;;;;;;;4326773;32;20094;-68
2022/06/19 15:52:15;;;;;;;3.50;2.50;;;;;;;;;;4349086;32;20103;-68
2022/06/19 15:54:41;;;;;;;4.05;2.25;;;;;;;;;;4347887;33;20082;-69
2022/06/19 15:57:19;;;;;;;13.30;2.97;;;;;;;;;;4349075;32;20223;-69